Time;durP1;ratioP1;P1;durP2;ratioP2;P2;SDS_P1;SDS_P2;PMS_P1;PMS_P2;Temp;Humidity;BMP_temperature;BMP_pressure;BME280_temperature;BME280_humidity;BME280_pressure;Samples;Min_cycle;Max_cycle;Signal;HPM_P1;HPM_P2
2021/04/10 00:00:00;;;;;;;28.98;15.30;;;;;;;3.63;80.27;101308.03;5078931;28;20038;-46
2021/04/10 00:02:27;;;;;;;25.25;13.38;;;;;;;3.67;78.36;101311.94;5091360;28;21244;-48
2021/04/10 00:04:52;;;;;;;27.77;14.50;;;;;;;3.57;78.07;101317.53;5077264;28;20051;-48
2021/04/10 00:07:19;;;;;;;29.15;14.35;;;;;;;3.60;77.38;101316.34;5091589;28;20056;-48
2021/04/10 00:09:44;;;;;;;28.38;14.18;;;;;;;3.44;79.49;101327.19;5089728;28;20026;-47
2021/04/10 00:12:10;;;;;;;25.13;13.60;;;;;;;3.39;79.65;101318.94;5087619;28;20198;-47
2021/04/10 00:14:36;;;;;;;23.80;13.57;;;;;;;3.31;80.87;101326.00;5092714;28;20696;-46
2021/04/10 00:17:02;;;;;;;21.65;13.02;;;;;;;3.38;78.29;101327.91;5090677;28;20035;-46
2021/04/10 00:19:28;;;;;;;18.27;11.25;;;;;;;3.26;76.85;101322.28;5087413;28;20559;-47
2021/04/10 00:21:53;;;;;;;19.42;11.20;;;;;;;3.15;75.96;101322.75;5089678;28;20164;-47
2021/04/10 00:24:19;;;;;;;29.92;13.38;;;;;;;3.09;75.27;101313.72;5089475;28;20020;-48
2021/04/10 00:26:44;;;;;;;21.85;12.30;;;;;;;2.99;74.81;101306.06;5089852;28;20039;-46
2021/04/10 00:29:10;;;;;;;22.98;13.10;;;;;;;2.79;75.77;101312.09;5087376;28;20500;-48
2021/04/10 00:31:35;;;;;;;25.40;13.35;;;;;;;2.66;76.41;101313.56;5091263;28;20765;-46
2021/04/10 00:34:01;;;;;;;28.80;15.20;;;;;;;2.55;77.68;101306.09;5091278;28;20059;-46
2021/04/10 00:36:27;;;;;;;27.13;13.20;;;;;;;2.53;78.18;101309.94;5087524;28;20801;-47
2021/04/10 00:38:52;;;;;;;21.27;13.35;;;;;;;2.56;77.19;101312.22;5076371;28;20435;-47
2021/04/10 00:41:18;;;;;;;29.35;14.75;;;;;;;2.43;79.66;101320.75;5087625;28;20035;-49
2021/04/10 00:43:43;;;;;;;29.55;15.25;;;;;;;2.40;80.55;101321.94;5087338;28;20114;-47
2021/04/10 00:46:09;;;;;;;27.55;13.55;;;;;;;2.39;81.16;101312.38;5081844;28;20784;-47
2021/04/10 00:48:35;;;;;;;23.33;13.48;;;;;;;2.42;79.26;101327.06;5088361;28;20031;-47
2021/04/10 00:51:01;;;;;;;20.17;11.70;;;;;;;2.43;77.66;101328.69;5089889;28;20024;-47
2021/04/10 00:53:29;;;;;;;22.52;12.93;;;;;;;2.33;77.61;101325.47;5089595;28;20034;-46
2021/04/10 00:55:59;;;;;;;27.00;13.40;;;;;;;2.26;78.63;101328.03;5087736;28;20028;-49
2021/04/10 00:58:25;;;;;;;23.88;13.13;;;;;;;2.34;77.56;101319.22;5089047;28;20031;-46
2021/04/10 01:00:51;;;;;;;23.33;13.10;;;;;;;2.32;77.34;101326.47;5088808;28;20024;-46
2021/04/10 01:03:16;;;;;;;25.30;12.75;;;;;;;2.30;77.46;101323.19;5088973;28;20051;-47
2021/04/10 01:05:42;;;;;;;22.48;13.20;;;;;;;2.19;78.46;101326.28;5086715;28;20030;-47
2021/04/10 01:08:08;;;;;;;24.10;12.95;;;;;;;2.11;79.17;101332.44;5091561;28;20031;-46
2021/04/10 01:10:34;;;;;;;29.45;15.98;;;;;;;2.07;80.96;101331.16;5089241;28;20096;-48
2021/04/10 01:13:05;;;;;;;27.40;13.45;;;;;;;2.19;78.68;101331.56;5090316;28;20071;-48
2021/04/10 01:15:59;;;;;;;24.08;14.30;;;;;;;2.11;80.44;101325.34;5087690;28;20128;-46
2021/04/10 01:18:37;;;;;;;28.33;13.38;;;;;;;2.12;78.39;101326.16;5091073;28;20112;-46
2021/04/10 01:21:03;;;;;;;23.30;12.77;;;;;;;2.10;78.11;101326.34;5079323;28;20031;-48
2021/04/10 01:23:59;;;;;;;30.75;16.08;;;;;;;1.87;80.48;101322.91;5090359;28;20023;-49
2021/04/10 01:26:52;;;;;;;27.60;15.50;;;;;;;2.04;77.43;101318.31;5094959;28;20038;-47
2021/04/10 01:29:21;;;;;;;29.40;14.43;;;;;;;2.09;76.90;101321.22;5092929;28;20035;-48
2021/04/10 01:31:50;;;;;;;29.13;15.50;;;;;;;1.92;80.57;101327.66;5091659;28;20501;-46
2021/04/10 01:34:21;;;;;;;27.38;15.18;;;;;;;1.85;82.02;101310.88;5093381;28;20506;-48
2021/04/10 01:36:48;;;;;;;28.92;13.95;;;;;;;1.90;81.48;101306.69;5092640;28;20028;-46
2021/04/10 01:39:15;;;;;;;20.52;12.50;;;;;;;1.94;80.82;101302.69;5094386;28;20431;-47
2021/04/10 01:41:46;;;;;;;24.23;12.60;;;;;;;1.78;80.03;101308.09;5096593;28;20138;-47
2021/04/10 01:44:16;;;;;;;26.90;13.35;;;;;;;1.76;79.27;101304.81;5091864;28;20035;-49
2021/04/10 01:46:43;;;;;;;21.77;11.90;;;;;;;1.76;78.62;101312.72;5094576;28;21331;-48
2021/04/10 01:49:09;;;;;;;24.13;12.93;;;;;;;1.72;78.37;101308.81;5093250;28;20402;-47
2021/04/10 01:51:37;;;;;;;22.17;11.82;;;;;;;1.62;78.68;101303.78;5094083;28;20397;-46
2021/04/10 01:54:05;;;;;;;23.73;12.93;;;;;;;1.61;78.31;101309.22;5093039;28;20051;-49
2021/04/10 01:56:32;;;;;;;25.88;13.27;;;;;;;1.64;77.96;101312.34;5094027;28;20046;-47
2021/04/10 01:58:59;;;;;;;27.95;14.77;;;;;;;1.54;79.14;101303.81;5093546;28;20409;-46
2021/04/10 02:01:26;;;;;;;28.05;15.43;;;;;;;1.51;79.92;101307.63;5096463;28;20035;-47
2021/04/10 02:03:52;;;;;;;26.35;14.63;;;;;;;1.46;81.66;101311.81;5092514;28;20024;-46
2021/04/10 02:06:18;;;;;;;28.00;15.25;;;;;;;1.46;80.05;101315.25;5090957;28;20050;-46
2021/04/10 02:08:45;;;;;;;29.33;15.35;;;;;;;1.45;79.85;101308.34;5094050;28;20439;-49
2021/04/10 02:11:14;;;;;;;27.15;13.88;;;;;;;1.44;80.25;101305.88;5093910;28;20024;-46
2021/04/10 02:13:41;;;;;;;35.83;17.38;;;;;;;1.42;81.67;101305.19;5090931;28;20116;-46
2021/04/10 02:16:07;;;;;;;26.63;15.00;;;;;;;1.49;80.95;101307.00;5091914;28;20390;-47
2021/04/10 02:18:36;;;;;;;26.20;15.20;;;;;;;1.61;79.32;101296.81;5089182;28;20023;-46
2021/04/10 02:21:07;;;;;;;21.17;12.57;;;;;;;1.65;78.89;101295.50;5096456;28;20034;-49
2021/04/10 02:23:35;;;;;;;28.10;14.75;;;;;;;1.69;79.32;101303.88;5092094;28;20487;-47
2021/04/10 02:26:01;;;;;;;25.92;13.77;;;;;;;1.77;78.82;101301.16;5094182;28;20028;-47
2021/04/10 02:28:27;;;;;;;24.88;14.60;;;;;;;1.89;78.54;101301.59;5093651;28;20022;-47
2021/04/10 02:30:53;;;;;;;29.70;13.77;;;;;;;2.03;77.43;101299.00;5092747;28;20056;-47
2021/04/10 02:33:29;;;;;;;23.83;14.05;;;;;;;2.06;77.52;101290.69;5094353;28;20070;-46
2021/04/10 02:35:59;;;;;;;24.20;14.15;;;;;;;2.20;76.40;101294.38;5095990;28;20028;-46
2021/04/10 02:38:28;;;;;;;25.20;13.27;;;;;;;2.26;76.27;101292.81;5091145;28;20390;-46
2021/04/10 02:41:06;;;;;;;28.48;13.90;;;;;;;2.33;75.87;101291.09;5094233;28;20024;-46
2021/04/10 02:43:34;;;;;;;22.10;12.50;;;;;;;2.43;75.57;101295.13;5094581;28;20019;-47
2021/04/10 02:46:03;;;;;;;22.92;12.15;;;;;;;2.44;76.05;101303.88;5093049;28;20811;-45
2021/04/10 02:48:34;;;;;;;22.25;12.70;;;;;;;2.46;76.14;101307.16;5091709;28;20032;-46
2021/04/10 02:51:01;;;;;;;21.25;11.98;;;;;;;2.54;75.11;101309.75;5094658;28;20032;-46
2021/04/10 02:53:32;;;;;;;24.95;12.82;;;;;;;2.57;74.99;101309.38;5091029;28;20023;-48
2021/04/10 02:55:59;;;;;;;25.55;11.95;;;;;;;2.57;75.56;101300.63;5093542;28;20043;-48
2021/04/10 02:58:27;;;;;;;22.48;11.40;;;;;;;2.60;75.44;101311.66;5093283;28;20031;-46
2021/04/10 03:00:55;;;;;;;23.58;12.10;;;;;;;2.64;75.38;101315.56;5094083;28;20028;-46
2021/04/10 03:03:23;;;;;;;28.23;12.35;;;;;;;2.67;75.43;101315.19;5095057;28;20557;-47
2021/04/10 03:05:49;;;;;;;22.83;12.55;;;;;;;2.69;75.54;101318.50;5092902;28;20031;-46
2021/04/10 03:08:18;;;;;;;22.77;12.25;;;;;;;2.71;76.07;101327.09;5093089;28;20028;-46
2021/04/10 03:10:49;;;;;;;25.67;12.77;;;;;;;2.77;75.42;101322.88;5090597;28;20032;-46
2021/04/10 03:13:17;;;;;;;24.48;12.40;;;;;;;2.83;75.37;101330.06;5091732;28;20205;-49
2021/04/10 03:15:43;;;;;;;26.13;13.60;;;;;;;2.78;76.28;101331.63;5092198;28;20035;-47
2021/04/10 03:18:10;;;;;;;30.00;14.48;;;;;;;2.87;75.17;101327.88;5093312;28;20020;-46
2021/04/10 03:20:36;;;;;;;34.25;15.88;;;;;;;2.83;75.92;101340.66;5093628;28;20020;-48
2021/04/10 03:23:02;;;;;;;26.92;15.02;;;;;;;2.86;75.62;101344.75;5090941;28;20024;-49
2021/04/10 03:25:28;;;;;;;25.02;12.88;;;;;;;2.92;75.25;101350.16;5093436;28;20599;-47
2021/04/10 03:27:54;;;;;;;20.45;11.23;;;;;;;2.93;75.12;101345.69;5090750;28;20601;-50
2021/04/10 03:30:21;;;;;;;26.80;12.30;;;;;;;2.95;74.89;101351.63;5092753;28;20102;-48
2021/04/10 03:32:47;;;;;;;20.60;12.02;;;;;;;2.89;75.79;101355.84;5093350;28;20115;-48
2021/04/10 03:35:14;;;;;;;23.48;11.45;;;;;;;2.92;75.15;101352.81;5090927;28;20187;-47
2021/04/10 03:37:40;;;;;;;25.17;11.82;;;;;;;2.91;75.14;101348.53;5088555;28;20485;-47
2021/04/10 03:40:06;;;;;;;21.05;10.95;;;;;;;2.93;74.94;101357.09;5091325;28;20038;-48
2021/04/10 03:42:40;;;;;;;20.92;10.68;;;;;;;2.88;75.77;101354.19;5090828;28;20028;-47
2021/04/10 03:45:09;;;;;;;19.23;10.67;;;;;;;2.92;75.33;101357.28;5090204;28;20588;-46
2021/04/10 03:47:35;;;;;;;21.40;11.43;;;;;;;3.00;74.07;101357.19;5076711;28;20402;-47
2021/04/10 03:50:01;;;;;;;20.88;11.20;;;;;;;3.02;74.26;101356.00;5091241;28;20028;-47
2021/04/10 03:52:26;;;;;;;24.77;11.32;;;;;;;3.01;73.79;101357.00;5091410;28;20494;-48
2021/04/10 03:54:52;;;;;;;23.10;11.88;;;;;;;2.95;74.71;101359.56;5088247;28;20024;-46
2021/04/10 03:57:18;;;;;;;24.10;13.07;;;;;;;2.96;74.61;101372.63;5092063;28;20137;-46
2021/04/10 03:59:43;;;;;;;27.80;13.65;;;;;;;2.71;77.63;101372.06;5089241;28;20486;-49
2021/04/10 04:02:09;;;;;;;24.20;12.32;;;;;;;2.64;78.14;101379.06;5090862;28;20027;-49
2021/04/10 04:04:34;;;;;;;23.55;12.85;;;;;;;2.71;77.85;101380.00;5092229;28;20028;-46
2021/04/10 04:07:01;;;;;;;24.90;12.02;;;;;;;2.83;76.88;101383.00;5091507;28;20482;-47
2021/04/10 04:09:27;;;;;;;22.50;11.57;;;;;;;2.96;75.93;101390.31;5090239;28;20318;-46
2021/04/10 04:11:52;;;;;;;27.73;13.38;;;;;;;3.00;76.57;101387.13;5088891;28;20031;-46
2021/04/10 04:14:18;;;;;;;23.45;13.70;;;;;;;3.09;76.01;101389.69;5089351;28;20519;-45
2021/04/10 04:16:44;;;;;;;23.58;12.93;;;;;;;3.15;76.08;101394.25;5088185;28;20546;-51
2021/04/10 04:19:09;;;;;;;25.60;13.73;;;;;;;3.22;75.64;101397.78;5091084;28;20038;-48
2021/04/10 04:21:35;;;;;;;25.77;13.38;;;;;;;3.27;75.94;101396.25;5087478;28;20406;-46
2021/04/10 04:24:00;;;;;;;23.85;13.27;;;;;;;3.33;75.51;101395.50;5090083;28;20039;-46
2021/04/10 04:26:26;;;;;;;23.13;12.77;;;;;;;3.40;76.00;101403.53;5089785;28;20051;-47
2021/04/10 04:28:51;;;;;;;25.98;14.00;;;;;;;3.44;76.05;101407.47;5090165;28;20028;-46
2021/04/10 04:31:19;;;;;;;25.65;13.43;;;;;;;3.49;75.83;101409.56;5091223;28;20073;-46
2021/04/10 04:33:45;;;;;;;24.98;14.32;;;;;;;3.54;75.47;101421.22;5090430;28;20085;-46
2021/04/10 04:36:10;;;;;;;27.42;14.43;;;;;;;3.56;75.66;101418.41;5090199;28;20038;-45
2021/04/10 04:38:36;;;;;;;29.75;14.43;;;;;;;3.59;75.50;101416.22;5090623;28;20466;-46
2021/04/10 04:41:02;;;;;;;27.35;14.45;;;;;;;3.61;76.21;101419.50;5087803;28;20106;-46
2021/04/10 04:43:27;;;;;;;28.90;14.23;;;;;;;3.61;77.02;101418.69;5089521;28;20622;-48
2021/04/10 04:45:53;;;;;;;27.35;14.00;;;;;;;3.62;77.36;101417.69;5090996;28;20016;-47
2021/04/10 04:48:18;;;;;;;23.05;13.73;;;;;;;3.67;76.74;101427.72;5091301;28;20031;-46
2021/04/10 04:50:44;;;;;;;25.73;13.55;;;;;;;3.70;76.13;101424.69;5090131;28;20032;-46
2021/04/10 04:53:09;;;;;;;29.13;14.88;;;;;;;3.74;76.20;101423.28;5091711;28;20808;-45
2021/04/10 04:55:35;;;;;;;32.40;15.85;;;;;;;3.73;77.83;101427.78;5088692;28;20386;-46
2021/04/10 04:58:00;;;;;;;33.38;16.33;;;;;;;3.76;77.56;101431.88;5089119;28;20452;-46
2021/04/10 05:00:26;;;;;;;31.48;15.63;;;;;;;3.76;78.56;101430.03;5088802;28;20035;-46
2021/04/10 05:02:52;;;;;;;31.17;16.08;;;;;;;3.77;78.80;101431.72;5088716;28;20036;-46
2021/04/10 05:05:17;;;;;;;27.77;15.13;;;;;;;3.78;79.07;101430.72;5089565;28;20024;-45
2021/04/10 05:07:43;;;;;;;30.17;15.20;;;;;;;3.84;78.06;101435.25;5090131;28;20028;-48
2021/04/10 05:10:09;;;;;;;27.95;14.25;;;;;;;3.91;77.05;101433.50;5088167;28;20568;-46
2021/04/10 05:12:34;;;;;;;25.00;13.75;;;;;;;3.96;76.87;101437.44;5089580;28;20099;-46
2021/04/10 05:15:00;;;;;;;30.15;16.27;;;;;;;3.95;78.07;101441.91;5089391;28;20043;-46
2021/04/10 05:17:25;;;;;;;34.55;15.80;;;;;;;3.99;77.93;101442.34;5088272;28;20050;-46
2021/04/10 05:19:51;;;;;;;29.77;14.70;;;;;;;4.03;77.50;101443.63;5087624;28;20527;-47
2021/04/10 05:22:16;;;;;;;25.20;14.15;;;;;;;4.11;75.87;101443.47;5089675;28;20093;-46
2021/04/10 05:24:42;;;;;;;32.75;15.77;;;;;;;4.14;75.61;101446.59;5091563;28;20049;-46
2021/04/10 05:27:07;;;;;;;32.20;15.63;;;;;;;4.17;76.11;101458.66;5074093;28;20042;-46
2021/04/10 05:29:33;;;;;;;28.35;15.43;;;;;;;4.17;76.34;101463.97;5089555;28;20031;-45
2021/04/10 05:32:00;;;;;;;30.20;15.18;;;;;;;4.19;76.59;101469.91;5087659;28;20032;-47
2021/04/10 05:34:26;;;;;;;29.45;16.15;;;;;;;4.24;76.43;101478.09;5087436;28;20030;-47
2021/04/10 05:36:52;;;;;;;28.55;14.48;;;;;;;4.27;76.26;101482.22;5088283;28;20028;-46
2021/04/10 05:39:17;;;;;;;30.92;15.52;;;;;;;4.31;76.42;101486.13;5076898;28;20032;-46
2021/04/10 05:41:43;;;;;;;33.78;16.83;;;;;;;4.35;76.47;101493.53;5088675;28;20040;-48
2021/04/10 05:44:08;;;;;;;28.30;16.20;;;;;;;4.34;76.84;101502.50;5088521;28;20028;-48
2021/04/10 05:46:34;;;;;;;25.23;14.35;;;;;;;4.36;76.46;101497.81;5072830;28;20027;-49
2021/04/10 05:48:59;;;;;;;26.23;15.57;;;;;;;4.32;76.57;101495.75;5087432;28;20208;-47
2021/04/10 05:51:25;;;;;;;29.98;16.30;;;;;;;4.33;76.76;101500.88;5075852;28;20027;-47
2021/04/10 05:53:51;;;;;;;26.92;14.82;;;;;;;4.37;76.68;101510.09;5090128;28;20031;-46
2021/04/10 05:56:16;;;;;;;30.15;16.48;;;;;;;4.43;76.37;101508.50;5088845;28;20024;-46
2021/04/10 05:58:42;;;;;;;32.28;17.10;;;;;;;4.45;76.88;101509.94;5090148;28;20034;-46
2021/04/10 06:01:07;;;;;;;32.65;18.63;;;;;;;4.43;77.77;101519.94;5092171;28;20114;-45
2021/04/10 06:03:33;;;;;;;33.15;18.77;;;;;;;4.50;77.12;101518.19;5088828;28;20023;-46
2021/04/10 06:05:59;;;;;;;33.53;18.90;;;;;;;4.53;77.16;101523.09;5092903;28;20048;-47
2021/04/10 06:08:24;;;;;;;34.85;20.10;;;;;;;4.59;76.92;101524.19;5092013;28;20494;-48
2021/04/10 06:10:51;;;;;;;34.15;17.77;;;;;;;4.50;78.43;101520.03;5093700;28;20085;-47
2021/04/10 06:13:18;;;;;;;33.03;17.40;;;;;;;4.60;77.21;101528.47;5093593;28;20024;-46
2021/04/10 06:15:44;;;;;;;29.80;16.65;;;;;;;4.73;76.98;101535.75;5095583;28;20066;-47
2021/04/10 06:18:09;;;;;;;31.63;17.55;;;;;;;4.84;76.73;101536.03;5090394;28;20036;-46
2021/04/10 06:20:35;;;;;;;31.38;18.13;;;;;;;4.93;77.33;101531.44;5091350;28;20054;-48
2021/04/10 06:23:01;;;;;;;26.65;14.55;;;;;;;5.00;76.06;101542.91;5090957;28;20070;-46
2021/04/10 06:25:26;;;;;;;31.05;17.20;;;;;;;5.04;77.32;101538.06;5097773;28;20069;-47
2021/04/10 06:27:52;;;;;;;36.97;20.67;;;;;;;5.08;78.00;101537.47;5091643;28;20108;-46
2021/04/10 06:30:18;;;;;;;34.03;17.58;;;;;;;5.19;77.18;101543.25;5091461;28;20049;-47
2021/04/10 06:32:43;;;;;;;36.28;19.20;;;;;;;5.22;77.25;101537.59;5089641;28;20032;-46
2021/04/10 06:35:09;;;;;;;36.13;19.42;;;;;;;5.26;77.57;101546.81;5093268;28;20031;-46
2021/04/10 06:37:36;;;;;;;34.40;17.35;;;;;;;5.27;76.83;101545.78;5092230;28;20093;-46
2021/04/10 06:40:02;;;;;;;34.10;17.00;;;;;;;5.19;78.14;101552.06;5094413;28;20024;-46
2021/04/10 06:42:29;;;;;;;29.17;15.48;;;;;;;5.21;77.66;101551.88;5092617;28;20036;-46
2021/04/10 06:44:55;;;;;;;30.15;16.42;;;;;;;5.21;77.06;101557.19;5093653;28;20023;-46
2021/04/10 06:47:22;;;;;;;38.15;17.95;;;;;;;5.22;78.20;101561.50;5092621;28;20096;-46
2021/04/10 06:49:52;;;;;;;32.40;16.33;;;;;;;5.24;78.05;101565.59;5091848;28;20046;-46
2021/04/10 06:52:18;;;;;;;36.20;17.38;;;;;;;5.28;78.03;101569.50;5090790;28;20486;-46
2021/04/10 06:54:49;;;;;;;37.17;18.63;;;;;;;5.25;79.86;101571.75;5090506;28;20081;-46
2021/04/10 06:57:18;;;;;;;33.33;16.45;;;;;;;5.32;78.63;101570.75;5094837;28;20016;-48
2021/04/10 06:59:51;;;;;;;33.00;17.40;;;;;;;5.35;79.58;101572.22;5092284;28;20070;-46
2021/04/10 07:02:17;;;;;;;33.33;15.82;;;;;;;5.50;77.68;101578.25;5094886;28;20069;-46
2021/04/10 07:04:42;;;;;;;33.65;16.73;;;;;;;5.55;78.11;101567.84;5094016;28;20027;-46
2021/04/10 07:07:10;;;;;;;29.52;15.50;;;;;;;5.69;76.92;101579.38;5096094;28;20019;-46
2021/04/10 07:09:36;;;;;;;34.40;16.33;;;;;;;5.79;76.99;101581.72;5095642;28;20032;-45
2021/04/10 07:12:07;;;;;;;32.75;16.65;;;;;;;5.83;77.45;101585.63;5096624;28;20111;-48
2021/04/10 07:14:33;;;;;;;33.08;15.63;;;;;;;5.89;77.07;101574.19;5094274;28;20027;-46
2021/04/10 07:16:59;;;;;;;26.88;13.98;;;;;;;5.93;77.10;101578.97;5093987;28;20121;-46
2021/04/10 07:19:26;;;;;;;24.52;12.55;;;;;;;5.99;77.58;101569.38;5089419;28;20791;-47
2021/04/10 07:22:01;;;;;;;25.92;11.60;;;;;;;6.09;76.87;101575.13;5090628;28;20036;-46
2021/04/10 07:24:43;;;;;;;21.30;10.15;;;;;;;6.17;77.22;101582.13;5091826;28;20031;-46
2021/04/10 07:27:15;;;;;;;17.75;8.75;;;;;;;6.24;77.10;101582.97;5088955;28;20382;-46
2021/04/10 07:29:44;;;;;;;17.25;8.00;;;;;;;6.36;76.14;101579.53;5091433;28;20028;-45
2021/04/10 07:32:32;;;;;;;28.02;9.75;;;;;;;6.44;77.13;101591.03;5089150;28;20055;-46
2021/04/10 07:35:03;;;;;;;19.13;9.10;;;;;;;6.65;75.47;101589.06;5090165;28;20085;-46
2021/04/10 07:37:49;;;;;;;23.05;8.35;;;;;;;6.79;75.53;101575.75;5089727;28;20631;-46
2021/04/10 07:40:26;;;;;;;16.08;7.68;;;;;;;6.97;74.76;101582.13;5092531;28;20028;-46
2021/04/10 07:42:53;;;;;;;16.75;7.57;;;;;;;7.24;73.80;101579.47;5085812;28;20381;-46
2021/04/10 07:45:33;;;;;;;19.48;8.35;;;;;;;7.40;73.01;101584.38;5086041;28;20106;-46
2021/04/10 07:48:14;;;;;;;18.20;8.15;;;;;;;7.44;73.69;101593.59;5090698;28;20628;-46
2021/04/10 07:50:40;;;;;;;15.68;7.55;;;;;;;7.57;72.32;101590.94;5087755;28;20049;-46
2021/04/10 07:53:28;;;;;;;15.48;6.60;;;;;;;7.65;72.36;101591.72;5088173;28;20031;-46
2021/04/10 07:55:55;;;;;;;26.73;7.57;;;;;;;7.77;72.05;101592.75;5090883;28;20039;-46
2021/04/10 07:58:32;;;;;;;15.00;7.00;;;;;;;7.85;72.01;101603.16;5092265;28;20165;-47
2021/04/10 08:00:59;;;;;;;17.90;7.25;;;;;;;7.93;71.62;101594.97;5091611;28;20046;-46
2021/04/10 08:03:31;;;;;;;21.42;8.35;;;;;;;7.98;72.30;101597.81;5091154;28;20103;-48
2021/04/10 08:06:06;;;;;;;17.35;7.32;;;;;;;8.02;72.17;101593.69;5091275;28;20047;-45
2021/04/10 08:08:54;;;;;;;16.48;7.00;;;;;;;8.14;71.58;101593.84;5087066;28;20155;-46
2021/04/10 08:11:38;;;;;;;14.10;6.43;;;;;;;8.36;70.67;101594.41;5091651;28;22760;-46
2021/04/10 08:14:05;;;;;;;15.80;7.38;;;;;;;8.51;70.27;101602.16;5079301;28;20085;-46
2021/04/10 08:16:31;;;;;;;18.67;6.38;;;;;;;8.57;70.45;101607.44;5073077;28;20112;-46
2021/04/10 08:18:59;;;;;;;13.82;6.32;;;;;;;8.56;69.91;101608.47;5086927;28;20424;-46
2021/04/10 08:21:31;;;;;;;17.02;6.28;;;;;;;8.61;69.93;101607.84;5089474;28;20081;-47
2021/04/10 08:23:57;;;;;;;16.08;6.80;;;;;;;8.64;70.11;101608.25;5089575;28;20039;-46
2021/04/10 08:26:23;;;;;;;13.13;5.95;;;;;;;8.71;70.07;101608.19;5087257;28;20023;-47
2021/04/10 08:28:48;;;;;;;13.20;6.00;;;;;;;8.66;70.40;101610.69;5089176;28;20035;-46
2021/04/10 08:31:15;;;;;;;17.45;6.63;;;;;;;8.68;70.69;101613.97;5074177;28;20031;-46
2021/04/10 08:33:40;;;;;;;16.00;6.18;;;;;;;8.65;69.92;101614.41;5091738;28;20023;-48
2021/04/10 08:36:08;;;;;;;16.15;6.28;;;;;;;8.64;69.74;101613.59;5087445;28;20353;-49
2021/04/10 08:38:36;;;;;;;17.25;5.63;;;;;;;8.72;69.68;101609.84;5088539;28;20028;-46
2021/04/10 08:41:05;;;;;;;13.07;5.75;;;;;;;8.79;69.34;101622.09;5090512;28;20161;-46
2021/04/10 08:43:35;;;;;;;16.00;6.25;;;;;;;8.84;69.11;101626.84;5090849;28;20024;-46
2021/04/10 08:46:03;;;;;;;14.70;6.10;;;;;;;8.87;68.23;101618.38;5084733;28;20040;-47
2021/04/10 08:48:30;;;;;;;16.65;5.93;;;;;;;8.92;68.63;101615.88;5086450;28;20027;-46
2021/04/10 08:51:00;;;;;;;16.00;5.40;;;;;;;8.96;68.32;101616.25;5087690;28;20034;-47
2021/04/10 08:53:28;;;;;;;18.42;5.68;;;;;;;9.05;67.63;101621.13;5086137;28;20099;-47
2021/04/10 08:55:54;;;;;;;11.23;5.78;;;;;;;9.20;67.75;101628.84;5090726;28;20527;-46
2021/04/10 08:58:35;;;;;;;15.18;5.68;;;;;;;9.49;66.88;101631.91;5086900;28;20031;-47
2021/04/10 09:01:04;;;;;;;12.77;5.30;;;;;;;9.75;66.43;101637.00;5087045;28;20034;-46
2021/04/10 09:03:45;;;;;;;11.63;5.30;;;;;;;9.91;66.08;101630.28;5084079;28;20139;-47
2021/04/10 09:06:15;;;;;;;15.55;5.90;;;;;;;10.12;64.86;101634.38;5082666;28;20024;-46
2021/04/10 09:08:41;;;;;;;12.30;5.65;;;;;;;10.41;64.32;101632.81;5083776;28;20044;-46
2021/04/10 09:11:10;;;;;;;13.10;4.90;;;;;;;10.70;62.90;101629.34;5086588;28;20036;-47
2021/04/10 09:13:44;;;;;;;12.57;5.00;;;;;;;11.10;61.38;101629.56;5083870;28;20055;-47
2021/04/10 09:16:33;;;;;;;10.70;4.65;;;;;;;11.50;60.56;101637.00;5085202;28;20027;-47
2021/04/10 09:19:12;;;;;;;7.53;3.97;;;;;;;11.52;56.30;101645.63;5088390;28;20112;-48
2021/04/10 09:21:52;;;;;;;10.30;4.57;;;;;;;11.69;58.43;101643.91;5085983;28;20044;-46
2021/04/10 09:24:42;;;;;;;11.02;3.92;;;;;;;11.50;58.75;101650.41;5084241;28;20399;-47
2021/04/10 09:27:18;;;;;;;9.55;4.05;;;;;;;11.11;59.51;101655.34;5087066;28;20032;-46
2021/04/10 09:29:48;;;;;;;10.30;3.88;;;;;;;10.42;60.69;101661.25;5085834;28;20038;-46
2021/04/10 09:32:27;;;;;;;7.63;4.18;;;;;;;10.21;59.60;101662.50;5085698;28;20084;-48
2021/04/10 09:35:13;;;;;;;9.80;4.30;;;;;;;10.13;60.46;101665.47;5086461;28;20031;-47
2021/04/10 09:37:38;;;;;;;13.63;4.68;;;;;;;10.06;60.20;101664.72;5081921;28;20031;-46
2021/04/10 09:40:38;;;;;;;9.38;4.30;;;;;;;10.22;59.81;101672.16;5085898;28;20024;-46
2021/04/10 09:43:05;;;;;;;15.02;4.75;;;;;;;10.45;59.23;101671.53;5071014;28;20039;-47
2021/04/10 09:45:34;;;;;;;12.68;5.40;;;;;;;10.69;58.86;101659.88;5090438;28;20069;-46
2021/04/10 09:48:00;;;;;;;15.05;5.07;;;;;;;10.81;58.52;101667.97;5090272;28;20627;-47
2021/04/10 09:50:26;;;;;;;10.75;5.03;;;;;;;10.85;58.62;101664.59;5090854;28;20024;-46
2021/04/10 09:53:02;;;;;;;16.15;5.32;;;;;;;10.97;58.30;101669.19;5091733;28;20028;-47
2021/04/10 09:55:32;;;;;;;16.42;5.65;;;;;;;11.08;58.64;101671.06;5090040;28;20023;-47
2021/04/10 09:58:03;;;;;;;13.48;4.72;;;;;;;11.24;57.43;101666.94;5091509;28;20073;-47
2021/04/10 10:00:35;;;;;;;16.63;5.35;;;;;;;11.40;57.52;101674.31;5089902;28;20035;-47
2021/04/10 10:03:03;;;;;;;11.93;4.55;;;;;;;11.59;56.59;101670.50;5092392;28;20089;-47
2021/04/10 10:05:34;;;;;;;12.52;4.95;;;;;;;11.64;55.39;101672.47;5093347;28;20023;-46
2021/04/10 10:08:01;;;;;;;10.15;5.13;;;;;;;11.74;56.15;101678.09;5091344;28;20048;-48
2021/04/10 10:10:31;;;;;;;14.20;4.80;;;;;;;11.50;57.45;101674.56;5090678;28;20103;-48
2021/04/10 10:13:10;;;;;;;10.60;4.90;;;;;;;11.82;56.00;101669.69;5087915;28;20028;-46
2021/04/10 10:15:37;;;;;;;11.50;4.30;;;;;;;11.98;55.77;101679.75;5089229;28;20987;-49
2021/04/10 10:18:16;;;;;;;14.38;4.50;;;;;;;11.78;56.58;101674.72;5083600;28;20048;-47
2021/04/10 10:21:11;;;;;;;13.05;4.70;;;;;;;11.60;57.42;101682.84;5090381;28;20024;-46
2021/04/10 10:23:42;;;;;;;11.75;4.57;;;;;;;11.75;56.39;101679.72;5066779;28;20040;-46
2021/04/10 10:26:28;;;;;;;11.38;4.25;;;;;;;11.86;55.89;101688.88;5089729;28;20467;-47
2021/04/10 10:29:02;;;;;;;11.25;4.60;;;;;;;12.02;54.71;101690.81;5082579;28;20106;-47
2021/04/10 10:31:40;;;;;;;14.35;5.00;;;;;;;12.76;53.44;101678.44;5093725;28;20027;-49
2021/04/10 10:34:11;;;;;;;11.35;4.30;;;;;;;13.05;51.94;101676.53;5088534;28;20062;-46
2021/04/10 10:36:40;;;;;;;12.38;4.07;;;;;;;12.75;50.50;101679.47;5094674;28;20034;-46
2021/04/10 10:39:08;;;;;;;14.15;4.68;;;;;;;12.91;51.87;101676.00;5090141;28;20058;-47
2021/04/10 10:41:44;;;;;;;16.00;4.88;;;;;;;13.14;51.55;101676.97;5094073;28;20032;-46
2021/04/10 10:44:10;;;;;;;8.60;4.03;;;;;;;12.98;51.66;101683.94;5089098;28;20027;-47
2021/04/10 10:46:36;;;;;;;10.90;4.55;;;;;;;12.69;53.05;101689.31;5091817;28;20107;-46
2021/04/10 10:49:08;;;;;;;15.82;5.03;;;;;;;12.26;52.93;101692.47;5092266;28;20038;-47
2021/04/10 10:51:39;;;;;;;13.90;5.05;;;;;;;11.64;54.10;101691.25;5090756;28;20557;-47
2021/04/10 10:54:05;;;;;;;10.73;3.92;;;;;;;11.38;53.51;101692.50;5090447;28;20164;-46
2021/04/10 10:56:32;;;;;;;11.18;4.93;;;;;;;11.41;54.10;101702.78;5071287;28;20146;-46
2021/04/10 10:59:04;;;;;;;11.35;4.55;;;;;;;11.47;53.69;101701.84;5091103;28;20032;-48
2021/04/10 11:01:41;;;;;;;14.60;5.88;;;;;;;11.39;53.77;101707.56;5093076;28;20513;-45
2021/04/10 11:04:08;;;;;;;13.27;4.82;;;;;;;11.54;53.62;101712.50;5090016;28;20046;-48
2021/04/10 11:06:40;;;;;;;14.98;4.72;;;;;;;11.57;53.80;101703.97;5085885;28;20027;-48
2021/04/10 11:09:11;;;;;;;15.52;4.68;;;;;;;11.50;52.77;101712.16;5092035;28;20037;-46
2021/04/10 11:11:41;;;;;;;11.63;4.93;;;;;;;11.80;52.83;101710.22;5086557;28;20028;-47
2021/04/10 11:14:08;;;;;;;11.52;3.88;;;;;;;11.80;52.29;101712.06;5092467;28;20028;-46
2021/04/10 11:16:48;;;;;;;12.27;4.07;;;;;;;11.83;50.62;101718.84;5086216;28;20032;-47
2021/04/10 11:19:32;;;;;;;8.95;3.13;;;;;;;11.79;50.48;101719.31;5087413;28;20186;-47
2021/04/10 11:21:59;;;;;;;11.30;3.97;;;;;;;11.87;50.51;101714.66;5087291;28;20034;-47
2021/04/10 11:24:37;;;;;;;13.30;5.05;;;;;;;11.68;50.85;101716.59;5086173;28;20385;-47
2021/04/10 11:27:18;;;;;;;11.38;4.85;;;;;;;11.84;50.98;101723.97;5086218;28;20426;-47